<?xml version="1.0" encoding="UTF-8" standalone="no" ?>
<gpx xmlns="http://www.topografix.com/GPX/1/1" xmlns:xsi="http://www.w3.org/2001/XMLSchema-instance" xsi:schemaLocation="http://www.topografix.com/GPX/1/1 http://www.topografix.com/GPX/1/1/gpx.xsd" version="1.1" creator="VisuGPX - https://www.visugpx.com">
  <metadata>
    <name>La Rigol\\\'hard 2014 l\\\'Isle-sur-le-doubs</name>
    <desc><![CDATA[Merci à Team VTT 25 pour cette belle rando]]></desc>
  </metadata>
  <trk>
    <name><![CDATA[Holux2014/06/15_09:07]]></name>
    <trkseg>
      <trkpt lat="47.45006" lon="6.58028">
        <ele>289</ele>
        <time>2014-06-15T07:07:59Z</time>
      </trkpt>
      <trkpt lat="47.45031" lon="6.58014">
        <ele>289</ele>
        <time>2014-06-15T07:08:30Z</time>
      </trkpt>
      <trkpt lat="47.45113" lon="6.57879">
        <ele>289</ele>
        <time>2014-06-15T07:09:04Z</time>
      </trkpt>
      <trkpt lat="47.45137" lon="6.5783">
        <ele>294</ele>
        <time>2014-06-15T07:09:15Z</time>
      </trkpt>
      <trkpt lat="47.45137" lon="6.57769">
        <ele>299</ele>
        <time>2014-06-15T07:09:26Z</time>
      </trkpt>
      <trkpt lat="47.451" lon="6.57736">
        <ele>304</ele>
        <time>2014-06-15T07:09:35Z</time>
      </trkpt>
      <trkpt lat="47.4507" lon="6.57695">
        <ele>305</ele>
        <time>2014-06-15T07:09:45Z</time>
      </trkpt>
      <trkpt lat="47.44907" lon="6.5763">
        <ele>303</ele>
        <time>2014-06-15T07:10:20Z</time>
      </trkpt>
      <trkpt lat="47.44782" lon="6.57608">
        <ele>306</ele>
        <time>2014-06-15T07:10:48Z</time>
      </trkpt>
      <trkpt lat="47.44702" lon="6.57575">
        <ele>312</ele>
        <time>2014-06-15T07:11:08Z</time>
      </trkpt>
      <trkpt lat="47.44666" lon="6.57541">
        <ele>301</ele>
        <time>2014-06-15T07:11:18Z</time>
      </trkpt>
      <trkpt lat="47.44643" lon="6.57493">
        <ele>307</ele>
        <time>2014-06-15T07:11:28Z</time>
      </trkpt>
      <trkpt lat="47.44621" lon="6.57444">
        <ele>306</ele>
        <time>2014-06-15T07:11:42Z</time>
      </trkpt>
      <trkpt lat="47.44592" lon="6.57329">
        <ele>310</ele>
        <time>2014-06-15T07:12:17Z</time>
      </trkpt>
      <trkpt lat="47.44572" lon="6.57205">
        <ele>309</ele>
        <time>2014-06-15T07:12:47Z</time>
      </trkpt>
      <trkpt lat="47.44567" lon="6.57148">
        <ele>311</ele>
        <time>2014-06-15T07:13:00Z</time>
      </trkpt>
      <trkpt lat="47.4457" lon="6.57088">
        <ele>311</ele>
        <time>2014-06-15T07:13:22Z</time>
      </trkpt>
      <trkpt lat="47.44559" lon="6.5703">
        <ele>312</ele>
        <time>2014-06-15T07:13:37Z</time>
      </trkpt>
      <trkpt lat="47.44592" lon="6.56923">
        <ele>315</ele>
        <time>2014-06-15T07:14:07Z</time>
      </trkpt>
      <trkpt lat="47.44578" lon="6.56866">
        <ele>313</ele>
        <time>2014-06-15T07:14:14Z</time>
      </trkpt>
      <trkpt lat="47.44559" lon="6.5681">
        <ele>309</ele>
        <time>2014-06-15T07:14:21Z</time>
      </trkpt>
      <trkpt lat="47.44495" lon="6.5673">
        <ele>305</ele>
        <time>2014-06-15T07:14:33Z</time>
      </trkpt>
      <trkpt lat="47.44408" lon="6.56587">
        <ele>293</ele>
        <time>2014-06-15T07:14:50Z</time>
      </trkpt>
      <trkpt lat="47.44448" lon="6.5658">
        <ele>290</ele>
        <time>2014-06-15T07:15:10Z</time>
      </trkpt>
      <trkpt lat="47.4451" lon="6.56423">
        <ele>301</ele>
        <time>2014-06-15T07:15:33Z</time>
      </trkpt>
      <trkpt lat="47.44486" lon="6.56377">
        <ele>302</ele>
        <time>2014-06-15T07:16:02Z</time>
      </trkpt>
      <trkpt lat="47.44469" lon="6.56321">
        <ele>309</ele>
        <time>2014-06-15T07:16:33Z</time>
      </trkpt>
      <trkpt lat="47.44507" lon="6.56308">
        <ele>319</ele>
        <time>2014-06-15T07:16:58Z</time>
      </trkpt>
      <trkpt lat="47.44549" lon="6.5621">
        <ele>323</ele>
        <time>2014-06-15T07:17:32Z</time>
      </trkpt>
      <trkpt lat="47.44598" lon="6.56042">
        <ele>322</ele>
        <time>2014-06-15T07:18:10Z</time>
      </trkpt>
      <trkpt lat="47.44637" lon="6.56018">
        <ele>320</ele>
        <time>2014-06-15T07:18:19Z</time>
      </trkpt>
      <trkpt lat="47.44678" lon="6.56019">
        <ele>320</ele>
        <time>2014-06-15T07:18:32Z</time>
      </trkpt>
      <trkpt lat="47.44758" lon="6.56046">
        <ele>328</ele>
        <time>2014-06-15T07:18:57Z</time>
      </trkpt>
      <trkpt lat="47.44792" lon="6.56078">
        <ele>330</ele>
        <time>2014-06-15T07:19:11Z</time>
      </trkpt>
      <trkpt lat="47.44832" lon="6.56069">
        <ele>332</ele>
        <time>2014-06-15T07:19:33Z</time>
      </trkpt>
      <trkpt lat="47.44889" lon="6.55986">
        <ele>340</ele>
        <time>2014-06-15T07:20:15Z</time>
      </trkpt>
      <trkpt lat="47.4495" lon="6.55917">
        <ele>353</ele>
        <time>2014-06-15T07:20:55Z</time>
      </trkpt>
      <trkpt lat="47.44974" lon="6.5587">
        <ele>355</ele>
        <time>2014-06-15T07:21:22Z</time>
      </trkpt>
      <trkpt lat="47.44994" lon="6.55693">
        <ele>349</ele>
        <time>2014-06-15T07:22:05Z</time>
      </trkpt>
      <trkpt lat="47.45038" lon="6.55529">
        <ele>358</ele>
        <time>2014-06-15T07:22:50Z</time>
      </trkpt>
      <trkpt lat="47.45045" lon="6.55428">
        <ele>360</ele>
        <time>2014-06-15T07:22:56Z</time>
      </trkpt>
      <trkpt lat="47.45015" lon="6.5537">
        <ele>358</ele>
        <time>2014-06-15T07:23:00Z</time>
      </trkpt>
      <trkpt lat="47.45002" lon="6.55312">
        <ele>355</ele>
        <time>2014-06-15T07:23:05Z</time>
      </trkpt>
      <trkpt lat="47.4501" lon="6.55251">
        <ele>352</ele>
        <time>2014-06-15T07:23:13Z</time>
      </trkpt>
      <trkpt lat="47.45008" lon="6.55189">
        <ele>355</ele>
        <time>2014-06-15T07:23:22Z</time>
      </trkpt>
      <trkpt lat="47.45003" lon="6.55125">
        <ele>355</ele>
        <time>2014-06-15T07:23:32Z</time>
      </trkpt>
      <trkpt lat="47.44986" lon="6.5507">
        <ele>340</ele>
        <time>2014-06-15T07:23:40Z</time>
      </trkpt>
      <trkpt lat="47.44979" lon="6.55006">
        <ele>338</ele>
        <time>2014-06-15T07:23:47Z</time>
      </trkpt>
      <trkpt lat="47.44979" lon="6.54947">
        <ele>333</ele>
        <time>2014-06-15T07:23:56Z</time>
      </trkpt>
      <trkpt lat="47.44995" lon="6.54825">
        <ele>326</ele>
        <time>2014-06-15T07:24:11Z</time>
      </trkpt>
      <trkpt lat="47.45023" lon="6.54709">
        <ele>323</ele>
        <time>2014-06-15T07:24:29Z</time>
      </trkpt>
      <trkpt lat="47.4523" lon="6.54479">
        <ele>314</ele>
        <time>2014-06-15T07:25:20Z</time>
      </trkpt>
      <trkpt lat="47.45252" lon="6.54428">
        <ele>313</ele>
        <time>2014-06-15T07:25:27Z</time>
      </trkpt>
      <trkpt lat="47.45249" lon="6.54302">
        <ele>299</ele>
        <time>2014-06-15T07:25:42Z</time>
      </trkpt>
      <trkpt lat="47.45289" lon="6.54282">
        <ele>302</ele>
        <time>2014-06-15T07:25:54Z</time>
      </trkpt>
      <trkpt lat="47.45413" lon="6.54286">
        <ele>311</ele>
        <time>2014-06-15T07:26:46Z</time>
      </trkpt>
      <trkpt lat="47.45452" lon="6.54276">
        <ele>316</ele>
        <time>2014-06-15T07:27:04Z</time>
      </trkpt>
      <trkpt lat="47.4553" lon="6.54314">
        <ele>320</ele>
        <time>2014-06-15T07:27:34Z</time>
      </trkpt>
      <trkpt lat="47.45677" lon="6.54428">
        <ele>326</ele>
        <time>2014-06-15T07:28:23Z</time>
      </trkpt>
      <trkpt lat="47.45717" lon="6.54442">
        <ele>326</ele>
        <time>2014-06-15T07:28:33Z</time>
      </trkpt>
      <trkpt lat="47.45754" lon="6.54464">
        <ele>329</ele>
        <time>2014-06-15T07:28:44Z</time>
      </trkpt>
      <trkpt lat="47.45808" lon="6.54552">
        <ele>328</ele>
        <time>2014-06-15T07:29:04Z</time>
      </trkpt>
      <trkpt lat="47.45842" lon="6.5459">
        <ele>329</ele>
        <time>2014-06-15T07:29:14Z</time>
      </trkpt>
      <trkpt lat="47.45941" lon="6.54692">
        <ele>331</ele>
        <time>2014-06-15T07:29:41Z</time>
      </trkpt>
      <trkpt lat="47.46088" lon="6.54816">
        <ele>333</ele>
        <time>2014-06-15T07:30:20Z</time>
      </trkpt>
      <trkpt lat="47.46151" lon="6.54893">
        <ele>334</ele>
        <time>2014-06-15T07:30:39Z</time>
      </trkpt>
      <trkpt lat="47.46174" lon="6.54948">
        <ele>339</ele>
        <time>2014-06-15T07:30:50Z</time>
      </trkpt>
      <trkpt lat="47.46221" lon="6.55111">
        <ele>343</ele>
        <time>2014-06-15T07:31:30Z</time>
      </trkpt>
      <trkpt lat="47.46241" lon="6.55163">
        <ele>344</ele>
        <time>2014-06-15T07:31:43Z</time>
      </trkpt>
      <trkpt lat="47.46267" lon="6.55211">
        <ele>347</ele>
        <time>2014-06-15T07:31:55Z</time>
      </trkpt>
      <trkpt lat="47.46321" lon="6.55297">
        <ele>349</ele>
        <time>2014-06-15T07:32:18Z</time>
      </trkpt>
      <trkpt lat="47.46354" lon="6.55334">
        <ele>349</ele>
        <time>2014-06-15T07:32:29Z</time>
      </trkpt>
      <trkpt lat="47.46426" lon="6.55385">
        <ele>350</ele>
        <time>2014-06-15T07:32:50Z</time>
      </trkpt>
      <trkpt lat="47.46551" lon="6.55422">
        <ele>352</ele>
        <time>2014-06-15T07:33:22Z</time>
      </trkpt>
      <trkpt lat="47.4659" lon="6.55415">
        <ele>356</ele>
        <time>2014-06-15T07:33:33Z</time>
      </trkpt>
      <trkpt lat="47.46663" lon="6.55356">
        <ele>358</ele>
        <time>2014-06-15T07:34:01Z</time>
      </trkpt>
      <trkpt lat="47.46696" lon="6.55316">
        <ele>360</ele>
        <time>2014-06-15T07:34:14Z</time>
      </trkpt>
      <trkpt lat="47.46776" lon="6.55179">
        <ele>361</ele>
        <time>2014-06-15T07:34:45Z</time>
      </trkpt>
      <trkpt lat="47.4683" lon="6.55015">
        <ele>364</ele>
        <time>2014-06-15T07:35:13Z</time>
      </trkpt>
      <trkpt lat="47.46859" lon="6.54895">
        <ele>365</ele>
        <time>2014-06-15T07:35:33Z</time>
      </trkpt>
      <trkpt lat="47.4687" lon="6.54773">
        <ele>368</ele>
        <time>2014-06-15T07:35:50Z</time>
      </trkpt>
      <trkpt lat="47.46887" lon="6.54717">
        <ele>369</ele>
        <time>2014-06-15T07:36:02Z</time>
      </trkpt>
      <trkpt lat="47.46896" lon="6.54657">
        <ele>370</ele>
        <time>2014-06-15T07:36:10Z</time>
      </trkpt>
      <trkpt lat="47.46891" lon="6.54599">
        <ele>371</ele>
        <time>2014-06-15T07:36:27Z</time>
      </trkpt>
      <trkpt lat="47.46839" lon="6.54437">
        <ele>380</ele>
        <time>2014-06-15T07:37:22Z</time>
      </trkpt>
      <trkpt lat="47.46769" lon="6.54156">
        <ele>397</ele>
        <time>2014-06-15T07:38:58Z</time>
      </trkpt>
      <trkpt lat="47.46634" lon="6.53712">
        <ele>416</ele>
        <time>2014-06-15T07:41:00Z</time>
      </trkpt>
      <trkpt lat="47.46523" lon="6.53465">
        <ele>421</ele>
        <time>2014-06-15T07:41:58Z</time>
      </trkpt>
      <trkpt lat="47.46246" lon="6.53077">
        <ele>420</ele>
        <time>2014-06-15T07:43:21Z</time>
      </trkpt>
      <trkpt lat="47.46219" lon="6.53119">
        <ele>415</ele>
        <time>2014-06-15T07:43:36Z</time>
      </trkpt>
      <trkpt lat="47.46201" lon="6.53174">
        <ele>412</ele>
        <time>2014-06-15T07:43:47Z</time>
      </trkpt>
      <trkpt lat="47.46151" lon="6.53269">
        <ele>404</ele>
        <time>2014-06-15T07:44:04Z</time>
      </trkpt>
      <trkpt lat="47.46179" lon="6.53231">
        <ele>410</ele>
        <time>2014-06-15T07:47:23Z</time>
      </trkpt>
      <trkpt lat="47.46244" lon="6.53076">
        <ele>419</ele>
        <time>2014-06-15T07:48:26Z</time>
      </trkpt>
      <trkpt lat="47.46217" lon="6.53031">
        <ele>419</ele>
        <time>2014-06-15T07:49:01Z</time>
      </trkpt>
      <trkpt lat="47.46092" lon="6.52883">
        <ele>415</ele>
        <time>2014-06-15T07:50:14Z</time>
      </trkpt>
      <trkpt lat="47.46059" lon="6.52817">
        <ele>412</ele>
        <time>2014-06-15T07:50:30Z</time>
      </trkpt>
      <trkpt lat="47.46004" lon="6.52734">
        <ele>412</ele>
        <time>2014-06-15T07:50:32Z</time>
      </trkpt>
      <trkpt lat="47.45979" lon="6.52685">
        <ele>409</ele>
        <time>2014-06-15T07:50:40Z</time>
      </trkpt>
      <trkpt lat="47.45941" lon="6.52715">
        <ele>407</ele>
        <time>2014-06-15T07:50:56Z</time>
      </trkpt>
      <trkpt lat="47.45901" lon="6.52711">
        <ele>406</ele>
        <time>2014-06-15T07:51:09Z</time>
      </trkpt>
      <trkpt lat="47.45864" lon="6.52734">
        <ele>406</ele>
        <time>2014-06-15T07:51:26Z</time>
      </trkpt>
      <trkpt lat="47.45784" lon="6.52741">
        <ele>409</ele>
        <time>2014-06-15T07:51:54Z</time>
      </trkpt>
      <trkpt lat="47.45812" lon="6.52697">
        <ele>409</ele>
        <time>2014-06-15T07:52:32Z</time>
      </trkpt>
      <trkpt lat="47.45854" lon="6.52683">
        <ele>407</ele>
        <time>2014-06-15T07:52:46Z</time>
      </trkpt>
      <trkpt lat="47.45883" lon="6.52643">
        <ele>402</ele>
        <time>2014-06-15T07:52:59Z</time>
      </trkpt>
      <trkpt lat="47.45922" lon="6.52625">
        <ele>401</ele>
        <time>2014-06-15T07:53:13Z</time>
      </trkpt>
      <trkpt lat="47.45894" lon="6.5251">
        <ele>389</ele>
        <time>2014-06-15T07:53:47Z</time>
      </trkpt>
      <trkpt lat="47.4591" lon="6.52456">
        <ele>386</ele>
        <time>2014-06-15T07:53:58Z</time>
      </trkpt>
      <trkpt lat="47.45942" lon="6.52416">
        <ele>385</ele>
        <time>2014-06-15T07:54:06Z</time>
      </trkpt>
      <trkpt lat="47.46062" lon="6.52175">
        <ele>394</ele>
        <time>2014-06-15T07:55:05Z</time>
      </trkpt>
      <trkpt lat="47.46086" lon="6.52057">
        <ele>396</ele>
        <time>2014-06-15T07:55:29Z</time>
      </trkpt>
      <trkpt lat="47.46134" lon="6.51889">
        <ele>399</ele>
        <time>2014-06-15T07:56:16Z</time>
      </trkpt>
      <trkpt lat="47.46156" lon="6.51834">
        <ele>400</ele>
        <time>2014-06-15T07:56:30Z</time>
      </trkpt>
      <trkpt lat="47.46187" lon="6.51594">
        <ele>406</ele>
        <time>2014-06-15T07:57:22Z</time>
      </trkpt>
      <trkpt lat="47.46191" lon="6.51477">
        <ele>414</ele>
        <time>2014-06-15T07:58:00Z</time>
      </trkpt>
      <trkpt lat="47.46231" lon="6.51473">
        <ele>416</ele>
        <time>2014-06-15T07:58:24Z</time>
      </trkpt>
      <trkpt lat="47.46268" lon="6.515">
        <ele>420</ele>
        <time>2014-06-15T07:58:36Z</time>
      </trkpt>
      <trkpt lat="47.46303" lon="6.5153">
        <ele>418</ele>
        <time>2014-06-15T07:58:48Z</time>
      </trkpt>
      <trkpt lat="47.46362" lon="6.51614">
        <ele>419</ele>
        <time>2014-06-15T07:59:12Z</time>
      </trkpt>
      <trkpt lat="47.46434" lon="6.51672">
        <ele>425</ele>
        <time>2014-06-15T07:59:38Z</time>
      </trkpt>
      <trkpt lat="47.46552" lon="6.51719">
        <ele>435</ele>
        <time>2014-06-15T08:00:25Z</time>
      </trkpt>
      <trkpt lat="47.46673" lon="6.51746">
        <ele>444</ele>
        <time>2014-06-15T08:01:18Z</time>
      </trkpt>
      <trkpt lat="47.46748" lon="6.51791">
        <ele>450</ele>
        <time>2014-06-15T08:01:53Z</time>
      </trkpt>
      <trkpt lat="47.46826" lon="6.51815">
        <ele>458</ele>
        <time>2014-06-15T08:02:26Z</time>
      </trkpt>
      <trkpt lat="47.46962" lon="6.5184">
        <ele>466</ele>
        <time>2014-06-15T08:03:07Z</time>
      </trkpt>
      <trkpt lat="47.47001" lon="6.51839">
        <ele>471</ele>
        <time>2014-06-15T08:03:21Z</time>
      </trkpt>
      <trkpt lat="47.47038" lon="6.51859">
        <ele>473</ele>
        <time>2014-06-15T08:03:30Z</time>
      </trkpt>
      <trkpt lat="47.47073" lon="6.5189">
        <ele>474</ele>
        <time>2014-06-15T08:03:47Z</time>
      </trkpt>
      <trkpt lat="47.47116" lon="6.51897">
        <ele>480</ele>
        <time>2014-06-15T08:04:00Z</time>
      </trkpt>
      <trkpt lat="47.47151" lon="6.51926">
        <ele>481</ele>
        <time>2014-06-15T08:04:13Z</time>
      </trkpt>
      <trkpt lat="47.47189" lon="6.51944">
        <ele>484</ele>
        <time>2014-06-15T08:04:28Z</time>
      </trkpt>
      <trkpt lat="47.47225" lon="6.51917">
        <ele>486</ele>
        <time>2014-06-15T08:04:41Z</time>
      </trkpt>
      <trkpt lat="47.47238" lon="6.51679">
        <ele>491</ele>
        <time>2014-06-15T08:05:37Z</time>
      </trkpt>
      <trkpt lat="47.47234" lon="6.51432">
        <ele>483</ele>
        <time>2014-06-15T08:06:12Z</time>
      </trkpt>
      <trkpt lat="47.47241" lon="6.51248">
        <ele>493</ele>
        <time>2014-06-15T08:06:59Z</time>
      </trkpt>
      <trkpt lat="47.47272" lon="6.50951">
        <ele>493</ele>
        <time>2014-06-15T08:07:59Z</time>
      </trkpt>
      <trkpt lat="47.47265" lon="6.50894">
        <ele>492</ele>
        <time>2014-06-15T08:08:05Z</time>
      </trkpt>
      <trkpt lat="47.47285" lon="6.50585">
        <ele>481</ele>
        <time>2014-06-15T08:08:43Z</time>
      </trkpt>
      <trkpt lat="47.47317" lon="6.50535">
        <ele>478</ele>
        <time>2014-06-15T08:08:55Z</time>
      </trkpt>
      <trkpt lat="47.47396" lon="6.50499">
        <ele>477</ele>
        <time>2014-06-15T08:09:17Z</time>
      </trkpt>
      <trkpt lat="47.4748" lon="6.50475">
        <ele>476</ele>
        <time>2014-06-15T08:09:40Z</time>
      </trkpt>
      <trkpt lat="47.4752" lon="6.50473">
        <ele>476</ele>
        <time>2014-06-15T08:09:51Z</time>
      </trkpt>
      <trkpt lat="47.47557" lon="6.50494">
        <ele>477</ele>
        <time>2014-06-15T08:10:08Z</time>
      </trkpt>
      <trkpt lat="47.47639" lon="6.50474">
        <ele>477</ele>
        <time>2014-06-15T08:10:41Z</time>
      </trkpt>
      <trkpt lat="47.47657" lon="6.50418">
        <ele>475</ele>
        <time>2014-06-15T08:10:54Z</time>
      </trkpt>
      <trkpt lat="47.47667" lon="6.50353">
        <ele>469</ele>
        <time>2014-06-15T08:11:00Z</time>
      </trkpt>
      <trkpt lat="47.47673" lon="6.50287">
        <ele>464</ele>
        <time>2014-06-15T08:11:06Z</time>
      </trkpt>
      <trkpt lat="47.47669" lon="6.50228">
        <ele>460</ele>
        <time>2014-06-15T08:11:11Z</time>
      </trkpt>
      <trkpt lat="47.47701" lon="6.50186">
        <ele>457</ele>
        <time>2014-06-15T08:11:17Z</time>
      </trkpt>
      <trkpt lat="47.47779" lon="6.50147">
        <ele>452</ele>
        <time>2014-06-15T08:11:27Z</time>
      </trkpt>
      <trkpt lat="47.47807" lon="6.50103">
        <ele>452</ele>
        <time>2014-06-15T08:11:32Z</time>
      </trkpt>
      <trkpt lat="47.47828" lon="6.50053">
        <ele>453</ele>
        <time>2014-06-15T08:11:36Z</time>
      </trkpt>
      <trkpt lat="47.47832" lon="6.49872">
        <ele>454</ele>
        <time>2014-06-15T08:11:57Z</time>
      </trkpt>
      <trkpt lat="47.47946" lon="6.49944">
        <ele>461</ele>
        <time>2014-06-15T08:12:54Z</time>
      </trkpt>
      <trkpt lat="47.47979" lon="6.49908">
        <ele>461</ele>
        <time>2014-06-15T08:13:04Z</time>
      </trkpt>
      <trkpt lat="47.48045" lon="6.49753">
        <ele>461</ele>
        <time>2014-06-15T08:13:40Z</time>
      </trkpt>
      <trkpt lat="47.48161" lon="6.4943">
        <ele>446</ele>
        <time>2014-06-15T08:14:35Z</time>
      </trkpt>
      <trkpt lat="47.48167" lon="6.49373">
        <ele>446</ele>
        <time>2014-06-15T08:15:14Z</time>
      </trkpt>
      <trkpt lat="47.48092" lon="6.49325">
        <ele>439</ele>
        <time>2014-06-15T08:31:06Z</time>
      </trkpt>
      <trkpt lat="47.4806" lon="6.4929">
        <ele>436</ele>
        <time>2014-06-15T08:31:13Z</time>
      </trkpt>
      <trkpt lat="47.48023" lon="6.49177">
        <ele>431</ele>
        <time>2014-06-15T08:31:32Z</time>
      </trkpt>
      <trkpt lat="47.47999" lon="6.49126">
        <ele>428</ele>
        <time>2014-06-15T08:31:41Z</time>
      </trkpt>
      <trkpt lat="47.47965" lon="6.49013">
        <ele>422</ele>
        <time>2014-06-15T08:31:58Z</time>
      </trkpt>
      <trkpt lat="47.47936" lon="6.48961">
        <ele>418</ele>
        <time>2014-06-15T08:32:04Z</time>
      </trkpt>
      <trkpt lat="47.47892" lon="6.48853">
        <ele>412</ele>
        <time>2014-06-15T08:32:24Z</time>
      </trkpt>
      <trkpt lat="47.47799" lon="6.4873">
        <ele>404</ele>
        <time>2014-06-15T08:32:48Z</time>
      </trkpt>
      <trkpt lat="47.47763" lon="6.48694">
        <ele>402</ele>
        <time>2014-06-15T08:32:55Z</time>
      </trkpt>
      <trkpt lat="47.47646" lon="6.48631">
        <ele>389</ele>
        <time>2014-06-15T08:33:32Z</time>
      </trkpt>
      <trkpt lat="47.47622" lon="6.48589">
        <ele>387</ele>
        <time>2014-06-15T08:34:08Z</time>
      </trkpt>
      <trkpt lat="47.47648" lon="6.48546">
        <ele>388</ele>
        <time>2014-06-15T08:34:50Z</time>
      </trkpt>
      <trkpt lat="47.47717" lon="6.48485">
        <ele>395</ele>
        <time>2014-06-15T08:35:40Z</time>
      </trkpt>
      <trkpt lat="47.47756" lon="6.48474">
        <ele>401</ele>
        <time>2014-06-15T08:35:59Z</time>
      </trkpt>
      <trkpt lat="47.47794" lon="6.48448">
        <ele>402</ele>
        <time>2014-06-15T08:36:14Z</time>
      </trkpt>
      <trkpt lat="47.47858" lon="6.4836">
        <ele>398</ele>
        <time>2014-06-15T08:36:35Z</time>
      </trkpt>
      <trkpt lat="47.47939" lon="6.48394">
        <ele>401</ele>
        <time>2014-06-15T08:37:02Z</time>
      </trkpt>
      <trkpt lat="47.48154" lon="6.48567">
        <ele>412</ele>
        <time>2014-06-15T08:38:18Z</time>
      </trkpt>
      <trkpt lat="47.48319" lon="6.48758">
        <ele>420</ele>
        <time>2014-06-15T08:39:23Z</time>
      </trkpt>
      <trkpt lat="47.48377" lon="6.48841">
        <ele>422</ele>
        <time>2014-06-15T08:39:49Z</time>
      </trkpt>
      <trkpt lat="47.48476" lon="6.48951">
        <ele>415</ele>
        <time>2014-06-15T08:40:09Z</time>
      </trkpt>
      <trkpt lat="47.48628" lon="6.49062">
        <ele>412</ele>
        <time>2014-06-15T08:40:36Z</time>
      </trkpt>
      <trkpt lat="47.48662" lon="6.49092">
        <ele>416</ele>
        <time>2014-06-15T08:40:47Z</time>
      </trkpt>
      <trkpt lat="47.48699" lon="6.49113">
        <ele>418</ele>
        <time>2014-06-15T08:40:56Z</time>
      </trkpt>
      <trkpt lat="47.48739" lon="6.49121">
        <ele>418</ele>
        <time>2014-06-15T08:41:05Z</time>
      </trkpt>
      <trkpt lat="47.48787" lon="6.4916">
        <ele>416</ele>
        <time>2014-06-15T08:41:19Z</time>
      </trkpt>
      <trkpt lat="47.48814" lon="6.49203">
        <ele>423</ele>
        <time>2014-06-15T08:41:38Z</time>
      </trkpt>
      <trkpt lat="47.49055" lon="6.493">
        <ele>416</ele>
        <time>2014-06-15T08:42:30Z</time>
      </trkpt>
      <trkpt lat="47.491" lon="6.49304">
        <ele>410</ele>
        <time>2014-06-15T08:42:39Z</time>
      </trkpt>
      <trkpt lat="47.49141" lon="6.49325">
        <ele>408</ele>
        <time>2014-06-15T08:42:46Z</time>
      </trkpt>
      <trkpt lat="47.4925" lon="6.49413">
        <ele>408</ele>
        <time>2014-06-15T08:43:10Z</time>
      </trkpt>
      <trkpt lat="47.49347" lon="6.49529">
        <ele>409</ele>
        <time>2014-06-15T08:43:37Z</time>
      </trkpt>
      <trkpt lat="47.49471" lon="6.49697">
        <ele>412</ele>
        <time>2014-06-15T08:44:20Z</time>
      </trkpt>
      <trkpt lat="47.49508" lon="6.49729">
        <ele>408</ele>
        <time>2014-06-15T08:44:31Z</time>
      </trkpt>
      <trkpt lat="47.49553" lon="6.49734">
        <ele>406</ele>
        <time>2014-06-15T08:44:38Z</time>
      </trkpt>
      <trkpt lat="47.49594" lon="6.49727">
        <ele>402</ele>
        <time>2014-06-15T08:44:44Z</time>
      </trkpt>
      <trkpt lat="47.49634" lon="6.49751">
        <ele>405</ele>
        <time>2014-06-15T08:44:51Z</time>
      </trkpt>
      <trkpt lat="47.4967" lon="6.49787">
        <ele>404</ele>
        <time>2014-06-15T08:45:00Z</time>
      </trkpt>
      <trkpt lat="47.49707" lon="6.49768">
        <ele>404</ele>
        <time>2014-06-15T08:45:08Z</time>
      </trkpt>
      <trkpt lat="47.49792" lon="6.49768">
        <ele>404</ele>
        <time>2014-06-15T08:45:25Z</time>
      </trkpt>
      <trkpt lat="47.49871" lon="6.49745">
        <ele>403</ele>
        <time>2014-06-15T08:45:41Z</time>
      </trkpt>
      <trkpt lat="47.49948" lon="6.49791">
        <ele>405</ele>
        <time>2014-06-15T08:46:03Z</time>
      </trkpt>
      <trkpt lat="47.50013" lon="6.49861">
        <ele>409</ele>
        <time>2014-06-15T08:46:27Z</time>
      </trkpt>
      <trkpt lat="47.50085" lon="6.49917">
        <ele>413</ele>
        <time>2014-06-15T08:47:03Z</time>
      </trkpt>
      <trkpt lat="47.50145" lon="6.5">
        <ele>423</ele>
        <time>2014-06-15T08:47:48Z</time>
      </trkpt>
      <trkpt lat="47.50195" lon="6.50095">
        <ele>430</ele>
        <time>2014-06-15T08:48:37Z</time>
      </trkpt>
      <trkpt lat="47.50226" lon="6.50133">
        <ele>433</ele>
        <time>2014-06-15T08:49:01Z</time>
      </trkpt>
      <trkpt lat="47.50296" lon="6.50193">
        <ele>441</ele>
        <time>2014-06-15T08:49:52Z</time>
      </trkpt>
      <trkpt lat="47.50387" lon="6.50307">
        <ele>451</ele>
        <time>2014-06-15T08:51:01Z</time>
      </trkpt>
      <trkpt lat="47.50443" lon="6.50394">
        <ele>460</ele>
        <time>2014-06-15T08:51:42Z</time>
      </trkpt>
      <trkpt lat="47.50464" lon="6.50443">
        <ele>465</ele>
        <time>2014-06-15T08:52:07Z</time>
      </trkpt>
      <trkpt lat="47.50495" lon="6.50485">
        <ele>467</ele>
        <time>2014-06-15T08:52:32Z</time>
      </trkpt>
      <trkpt lat="47.50574" lon="6.50476">
        <ele>469</ele>
        <time>2014-06-15T08:53:16Z</time>
      </trkpt>
      <trkpt lat="47.50611" lon="6.50499">
        <ele>472</ele>
        <time>2014-06-15T08:53:34Z</time>
      </trkpt>
      <trkpt lat="47.50731" lon="6.50536">
        <ele>482</ele>
        <time>2014-06-15T08:54:30Z</time>
      </trkpt>
      <trkpt lat="47.50806" lon="6.50578">
        <ele>485</ele>
        <time>2014-06-15T08:55:09Z</time>
      </trkpt>
      <trkpt lat="47.50846" lon="6.50589">
        <ele>481</ele>
        <time>2014-06-15T08:55:30Z</time>
      </trkpt>
      <trkpt lat="47.50887" lon="6.50585">
        <ele>481</ele>
        <time>2014-06-15T08:55:54Z</time>
      </trkpt>
      <trkpt lat="47.50926" lon="6.50568">
        <ele>492</ele>
        <time>2014-06-15T08:56:21Z</time>
      </trkpt>
      <trkpt lat="47.50964" lon="6.50562">
        <ele>497</ele>
        <time>2014-06-15T08:57:04Z</time>
      </trkpt>
      <trkpt lat="47.50999" lon="6.50536">
        <ele>500</ele>
        <time>2014-06-15T08:58:02Z</time>
      </trkpt>
      <trkpt lat="47.5103" lon="6.50498">
        <ele>509</ele>
        <time>2014-06-15T08:58:24Z</time>
      </trkpt>
      <trkpt lat="47.51146" lon="6.50564">
        <ele>517</ele>
        <time>2014-06-15T08:59:18Z</time>
      </trkpt>
      <trkpt lat="47.51218" lon="6.5062">
        <ele>507</ele>
        <time>2014-06-15T08:59:49Z</time>
      </trkpt>
      <trkpt lat="47.51244" lon="6.50664">
        <ele>504</ele>
        <time>2014-06-15T09:05:07Z</time>
      </trkpt>
      <trkpt lat="47.51278" lon="6.5069">
        <ele>489</ele>
        <time>2014-06-15T09:06:49Z</time>
      </trkpt>
      <trkpt lat="47.51311" lon="6.50657">
        <ele>484</ele>
        <time>2014-06-15T09:07:02Z</time>
      </trkpt>
      <trkpt lat="47.51297" lon="6.50605">
        <ele>486</ele>
        <time>2014-06-15T09:07:23Z</time>
      </trkpt>
      <trkpt lat="47.5119" lon="6.5052">
        <ele>507</ele>
        <time>2014-06-15T09:08:22Z</time>
      </trkpt>
      <trkpt lat="47.51173" lon="6.50463">
        <ele>496</ele>
        <time>2014-06-15T09:08:37Z</time>
      </trkpt>
      <trkpt lat="47.51034" lon="6.50336">
        <ele>497</ele>
        <time>2014-06-15T09:09:12Z</time>
      </trkpt>
      <trkpt lat="47.50965" lon="6.50284">
        <ele>490</ele>
        <time>2014-06-15T09:09:21Z</time>
      </trkpt>
      <trkpt lat="47.50933" lon="6.5024">
        <ele>481</ele>
        <time>2014-06-15T09:09:25Z</time>
      </trkpt>
      <trkpt lat="47.50767" lon="6.50215">
        <ele>481</ele>
        <time>2014-06-15T09:11:28Z</time>
      </trkpt>
      <trkpt lat="47.50706" lon="6.50122">
        <ele>467</ele>
        <time>2014-06-15T09:11:37Z</time>
      </trkpt>
      <trkpt lat="47.50587" lon="6.50064">
        <ele>456</ele>
        <time>2014-06-15T09:12:17Z</time>
      </trkpt>
      <trkpt lat="47.50551" lon="6.50038">
        <ele>452</ele>
        <time>2014-06-15T09:12:29Z</time>
      </trkpt>
      <trkpt lat="47.50411" lon="6.4989">
        <ele>431</ele>
        <time>2014-06-15T09:12:56Z</time>
      </trkpt>
      <trkpt lat="47.50293" lon="6.49823">
        <ele>417</ele>
        <time>2014-06-15T09:13:09Z</time>
      </trkpt>
      <trkpt lat="47.50166" lon="6.49657">
        <ele>406</ele>
        <time>2014-06-15T09:13:25Z</time>
      </trkpt>
      <trkpt lat="47.50129" lon="6.4963">
        <ele>403</ele>
        <time>2014-06-15T09:13:30Z</time>
      </trkpt>
      <trkpt lat="47.50175" lon="6.4963">
        <ele>399</ele>
        <time>2014-06-15T09:15:17Z</time>
      </trkpt>
      <trkpt lat="47.50267" lon="6.49662">
        <ele>393</ele>
        <time>2014-06-15T09:15:26Z</time>
      </trkpt>
      <trkpt lat="47.50312" lon="6.49666">
        <ele>388</ele>
        <time>2014-06-15T09:15:31Z</time>
      </trkpt>
      <trkpt lat="47.50448" lon="6.49646">
        <ele>378</ele>
        <time>2014-06-15T09:15:44Z</time>
      </trkpt>
      <trkpt lat="47.5049" lon="6.49666">
        <ele>378</ele>
        <time>2014-06-15T09:15:50Z</time>
      </trkpt>
      <trkpt lat="47.50617" lon="6.49633">
        <ele>377</ele>
        <time>2014-06-15T09:16:07Z</time>
      </trkpt>
      <trkpt lat="47.50662" lon="6.49335">
        <ele>354</ele>
        <time>2014-06-15T09:16:42Z</time>
      </trkpt>
      <trkpt lat="47.50713" lon="6.49093">
        <ele>334</ele>
        <time>2014-06-15T09:17:07Z</time>
      </trkpt>
      <trkpt lat="47.507" lon="6.49036">
        <ele>329</ele>
        <time>2014-06-15T09:17:13Z</time>
      </trkpt>
      <trkpt lat="47.50702" lon="6.48972">
        <ele>326</ele>
        <time>2014-06-15T09:17:19Z</time>
      </trkpt>
      <trkpt lat="47.5074" lon="6.48792">
        <ele>323</ele>
        <time>2014-06-15T09:17:36Z</time>
      </trkpt>
      <trkpt lat="47.50725" lon="6.48737">
        <ele>321</ele>
        <time>2014-06-15T09:17:43Z</time>
      </trkpt>
      <trkpt lat="47.50676" lon="6.48631">
        <ele>320</ele>
        <time>2014-06-15T09:17:57Z</time>
      </trkpt>
      <trkpt lat="47.50686" lon="6.48512">
        <ele>322</ele>
        <time>2014-06-15T09:18:19Z</time>
      </trkpt>
      <trkpt lat="47.50679" lon="6.48453">
        <ele>326</ele>
        <time>2014-06-15T09:18:30Z</time>
      </trkpt>
      <trkpt lat="47.50682" lon="6.48395">
        <ele>328</ele>
        <time>2014-06-15T09:18:43Z</time>
      </trkpt>
      <trkpt lat="47.50712" lon="6.48353">
        <ele>330</ele>
        <time>2014-06-15T09:18:59Z</time>
      </trkpt>
      <trkpt lat="47.50748" lon="6.48243">
        <ele>332</ele>
        <time>2014-06-15T09:19:30Z</time>
      </trkpt>
      <trkpt lat="47.50784" lon="6.48214">
        <ele>329</ele>
        <time>2014-06-15T09:19:42Z</time>
      </trkpt>
      <trkpt lat="47.5084" lon="6.48126">
        <ele>327</ele>
        <time>2014-06-15T09:20:03Z</time>
      </trkpt>
      <trkpt lat="47.50835" lon="6.48065">
        <ele>328</ele>
        <time>2014-06-15T09:20:18Z</time>
      </trkpt>
      <trkpt lat="47.50758" lon="6.47917">
        <ele>329</ele>
        <time>2014-06-15T09:20:48Z</time>
      </trkpt>
      <trkpt lat="47.5074" lon="6.4786">
        <ele>329</ele>
        <time>2014-06-15T09:20:59Z</time>
      </trkpt>
      <trkpt lat="47.50771" lon="6.4762">
        <ele>334</ele>
        <time>2014-06-15T09:21:42Z</time>
      </trkpt>
      <trkpt lat="47.50807" lon="6.47447">
        <ele>338</ele>
        <time>2014-06-15T09:22:15Z</time>
      </trkpt>
      <trkpt lat="47.50748" lon="6.47367">
        <ele>345</ele>
        <time>2014-06-15T09:22:48Z</time>
      </trkpt>
      <trkpt lat="47.50656" lon="6.47172">
        <ele>359</ele>
        <time>2014-06-15T09:24:27Z</time>
      </trkpt>
      <trkpt lat="47.50602" lon="6.47087">
        <ele>370</ele>
        <time>2014-06-15T09:25:19Z</time>
      </trkpt>
      <trkpt lat="47.50562" lon="6.47081">
        <ele>378</ele>
        <time>2014-06-15T09:25:51Z</time>
      </trkpt>
      <trkpt lat="47.50523" lon="6.47092">
        <ele>388</ele>
        <time>2014-06-15T09:26:29Z</time>
      </trkpt>
      <trkpt lat="47.50489" lon="6.47123">
        <ele>404</ele>
        <time>2014-06-15T09:26:59Z</time>
      </trkpt>
      <trkpt lat="47.50463" lon="6.47168">
        <ele>409</ele>
        <time>2014-06-15T09:27:45Z</time>
      </trkpt>
      <trkpt lat="47.50446" lon="6.47222">
        <ele>410</ele>
        <time>2014-06-15T09:28:24Z</time>
      </trkpt>
      <trkpt lat="47.50406" lon="6.47222">
        <ele>421</ele>
        <time>2014-06-15T09:28:55Z</time>
      </trkpt>
      <trkpt lat="47.50368" lon="6.47245">
        <ele>421</ele>
        <time>2014-06-15T09:29:09Z</time>
      </trkpt>
      <trkpt lat="47.50329" lon="6.47252">
        <ele>419</ele>
        <time>2014-06-15T09:29:35Z</time>
      </trkpt>
      <trkpt lat="47.5029" lon="6.47241">
        <ele>422</ele>
        <time>2014-06-15T09:30:05Z</time>
      </trkpt>
      <trkpt lat="47.50254" lon="6.4726">
        <ele>415</ele>
        <time>2014-06-15T09:30:22Z</time>
      </trkpt>
      <trkpt lat="47.50213" lon="6.47255">
        <ele>416</ele>
        <time>2014-06-15T09:30:24Z</time>
      </trkpt>
      <trkpt lat="47.50175" lon="6.47239">
        <ele>422</ele>
        <time>2014-06-15T09:30:31Z</time>
      </trkpt>
      <trkpt lat="47.50145" lon="6.47204">
        <ele>423</ele>
        <time>2014-06-15T09:30:47Z</time>
      </trkpt>
      <trkpt lat="47.50105" lon="6.47212">
        <ele>421</ele>
        <time>2014-06-15T09:30:55Z</time>
      </trkpt>
      <trkpt lat="47.50029" lon="6.47195">
        <ele>418</ele>
        <time>2014-06-15T09:31:28Z</time>
      </trkpt>
      <trkpt lat="47.49989" lon="6.47176">
        <ele>417</ele>
        <time>2014-06-15T09:32:05Z</time>
      </trkpt>
      <trkpt lat="47.4991" lon="6.47165">
        <ele>416</ele>
        <time>2014-06-15T09:32:36Z</time>
      </trkpt>
      <trkpt lat="47.49887" lon="6.47331">
        <ele>421</ele>
        <time>2014-06-15T09:33:35Z</time>
      </trkpt>
      <trkpt lat="47.49782" lon="6.47405">
        <ele>421</ele>
        <time>2014-06-15T09:34:23Z</time>
      </trkpt>
      <trkpt lat="47.49702" lon="6.47411">
        <ele>427</ele>
        <time>2014-06-15T09:34:27Z</time>
      </trkpt>
      <trkpt lat="47.49663" lon="6.47428">
        <ele>429</ele>
        <time>2014-06-15T09:34:32Z</time>
      </trkpt>
      <trkpt lat="47.49625" lon="6.47409">
        <ele>426</ele>
        <time>2014-06-15T09:34:46Z</time>
      </trkpt>
      <trkpt lat="47.49607" lon="6.47351">
        <ele>425</ele>
        <time>2014-06-15T09:34:54Z</time>
      </trkpt>
      <trkpt lat="47.49582" lon="6.47303">
        <ele>419</ele>
        <time>2014-06-15T09:35:01Z</time>
      </trkpt>
      <trkpt lat="47.49549" lon="6.47266">
        <ele>417</ele>
        <time>2014-06-15T09:35:10Z</time>
      </trkpt>
      <trkpt lat="47.49506" lon="6.47168">
        <ele>411</ele>
        <time>2014-06-15T09:35:26Z</time>
      </trkpt>
      <trkpt lat="47.4949" lon="6.47112">
        <ele>405</ele>
        <time>2014-06-15T09:35:34Z</time>
      </trkpt>
      <trkpt lat="47.49497" lon="6.47059">
        <ele>403</ele>
        <time>2014-06-15T09:35:52Z</time>
      </trkpt>
      <trkpt lat="47.49524" lon="6.47013">
        <ele>407</ele>
        <time>2014-06-15T09:36:12Z</time>
      </trkpt>
      <trkpt lat="47.49557" lon="6.46976">
        <ele>403</ele>
        <time>2014-06-15T09:36:32Z</time>
      </trkpt>
      <trkpt lat="47.49596" lon="6.46954">
        <ele>405</ele>
        <time>2014-06-15T09:36:45Z</time>
      </trkpt>
      <trkpt lat="47.49679" lon="6.46974">
        <ele>408</ele>
        <time>2014-06-15T09:37:10Z</time>
      </trkpt>
      <trkpt lat="47.49681" lon="6.4686">
        <ele>388</ele>
        <time>2014-06-15T09:37:40Z</time>
      </trkpt>
      <trkpt lat="47.49675" lon="6.46839">
        <ele>384</ele>
        <time>2014-06-15T09:37:50Z</time>
      </trkpt>
      <trkpt lat="47.49709" lon="6.4652">
        <ele>356</ele>
        <time>2014-06-15T09:38:19Z</time>
      </trkpt>
      <trkpt lat="47.4977" lon="6.46362">
        <ele>360</ele>
        <time>2014-06-15T09:38:41Z</time>
      </trkpt>
      <trkpt lat="47.49841" lon="6.46201">
        <ele>359</ele>
        <time>2014-06-15T09:39:14Z</time>
      </trkpt>
      <trkpt lat="47.49897" lon="6.45895">
        <ele>357</ele>
        <time>2014-06-15T09:39:52Z</time>
      </trkpt>
      <trkpt lat="47.49915" lon="6.4576">
        <ele>351</ele>
        <time>2014-06-15T09:40:05Z</time>
      </trkpt>
      <trkpt lat="47.49876" lon="6.45741">
        <ele>353</ele>
        <time>2014-06-15T09:40:31Z</time>
      </trkpt>
      <trkpt lat="47.49797" lon="6.45737">
        <ele>364</ele>
        <time>2014-06-15T09:41:07Z</time>
      </trkpt>
      <trkpt lat="47.49718" lon="6.45719">
        <ele>378</ele>
        <time>2014-06-15T09:41:53Z</time>
      </trkpt>
      <trkpt lat="47.49677" lon="6.45725">
        <ele>385</ele>
        <time>2014-06-15T09:42:20Z</time>
      </trkpt>
      <trkpt lat="47.49636" lon="6.4572">
        <ele>393</ele>
        <time>2014-06-15T09:42:43Z</time>
      </trkpt>
      <trkpt lat="47.49555" lon="6.45701">
        <ele>398</ele>
        <time>2014-06-15T09:43:15Z</time>
      </trkpt>
      <trkpt lat="47.49519" lon="6.45676">
        <ele>395</ele>
        <time>2014-06-15T09:43:27Z</time>
      </trkpt>
      <trkpt lat="47.4948" lon="6.45666">
        <ele>390</ele>
        <time>2014-06-15T09:43:53Z</time>
      </trkpt>
      <trkpt lat="47.494" lon="6.45685">
        <ele>420</ele>
        <time>2014-06-15T09:44:45Z</time>
      </trkpt>
      <trkpt lat="47.49358" lon="6.45681">
        <ele>424</ele>
        <time>2014-06-15T09:45:09Z</time>
      </trkpt>
      <trkpt lat="47.49286" lon="6.45728">
        <ele>435</ele>
        <time>2014-06-15T09:45:45Z</time>
      </trkpt>
      <trkpt lat="47.49246" lon="6.45733">
        <ele>438</ele>
        <time>2014-06-15T09:46:06Z</time>
      </trkpt>
      <trkpt lat="47.49206" lon="6.45725">
        <ele>437</ele>
        <time>2014-06-15T09:46:29Z</time>
      </trkpt>
      <trkpt lat="47.49169" lon="6.4573">
        <ele>439</ele>
        <time>2014-06-15T09:46:52Z</time>
      </trkpt>
      <trkpt lat="47.4913" lon="6.45751">
        <ele>445</ele>
        <time>2014-06-15T09:47:04Z</time>
      </trkpt>
      <trkpt lat="47.49092" lon="6.45751">
        <ele>443</ele>
        <time>2014-06-15T09:47:23Z</time>
      </trkpt>
      <trkpt lat="47.48915" lon="6.45714">
        <ele>432</ele>
        <time>2014-06-15T09:47:28Z</time>
      </trkpt>
      <trkpt lat="47.48903" lon="6.45795">
        <ele>436</ele>
        <time>2014-06-15T09:47:45Z</time>
      </trkpt>
      <trkpt lat="47.4886" lon="6.45788">
        <ele>436</ele>
        <time>2014-06-15T09:47:54Z</time>
      </trkpt>
      <trkpt lat="47.48822" lon="6.45766">
        <ele>434</ele>
        <time>2014-06-15T09:48:03Z</time>
      </trkpt>
      <trkpt lat="47.48782" lon="6.45776">
        <ele>434</ele>
        <time>2014-06-15T09:48:11Z</time>
      </trkpt>
      <trkpt lat="47.48747" lon="6.45742">
        <ele>431</ele>
        <time>2014-06-15T09:48:20Z</time>
      </trkpt>
      <trkpt lat="47.48708" lon="6.45726">
        <ele>431</ele>
        <time>2014-06-15T09:48:29Z</time>
      </trkpt>
      <trkpt lat="47.48621" lon="6.45751">
        <ele>436</ele>
        <time>2014-06-15T09:48:46Z</time>
      </trkpt>
      <trkpt lat="47.48577" lon="6.4573">
        <ele>434</ele>
        <time>2014-06-15T09:48:54Z</time>
      </trkpt>
      <trkpt lat="47.48542" lon="6.45703">
        <ele>434</ele>
        <time>2014-06-15T09:48:59Z</time>
      </trkpt>
      <trkpt lat="47.4851" lon="6.45657">
        <ele>430</ele>
        <time>2014-06-15T09:49:05Z</time>
      </trkpt>
      <trkpt lat="47.48496" lon="6.45602">
        <ele>424</ele>
        <time>2014-06-15T09:50:06Z</time>
      </trkpt>
      <trkpt lat="47.48457" lon="6.45567">
        <ele>418</ele>
        <time>2014-06-15T09:51:55Z</time>
      </trkpt>
      <trkpt lat="47.48421" lon="6.45431">
        <ele>407</ele>
        <time>2014-06-15T09:53:37Z</time>
      </trkpt>
      <trkpt lat="47.48421" lon="6.454">
        <ele>403</ele>
        <time>2014-06-15T09:55:21Z</time>
      </trkpt>
      <trkpt lat="47.48436" lon="6.45378">
        <ele>402</ele>
        <time>2014-06-15T09:55:52Z</time>
      </trkpt>
      <trkpt lat="47.48452" lon="6.45374">
        <ele>402</ele>
        <time>2014-06-15T09:58:00Z</time>
      </trkpt>
      <trkpt lat="47.48421" lon="6.45412">
        <ele>404</ele>
        <time>2014-06-15T10:09:55Z</time>
      </trkpt>
      <trkpt lat="47.48383" lon="6.45512">
        <ele>412</ele>
        <time>2014-06-15T10:10:30Z</time>
      </trkpt>
      <trkpt lat="47.48354" lon="6.45547">
        <ele>413</ele>
        <time>2014-06-15T10:10:47Z</time>
      </trkpt>
      <trkpt lat="47.48243" lon="6.4563">
        <ele>412</ele>
        <time>2014-06-15T10:11:40Z</time>
      </trkpt>
      <trkpt lat="47.48092" lon="6.45769">
        <ele>418</ele>
        <time>2014-06-15T10:12:12Z</time>
      </trkpt>
      <trkpt lat="47.47749" lon="6.45795">
        <ele>403</ele>
        <time>2014-06-15T10:13:12Z</time>
      </trkpt>
      <trkpt lat="47.47708" lon="6.45779">
        <ele>402</ele>
        <time>2014-06-15T10:13:17Z</time>
      </trkpt>
      <trkpt lat="47.4762" lon="6.45784">
        <ele>402</ele>
        <time>2014-06-15T10:13:28Z</time>
      </trkpt>
      <trkpt lat="47.47577" lon="6.45779">
        <ele>401</ele>
        <time>2014-06-15T10:13:35Z</time>
      </trkpt>
      <trkpt lat="47.47496" lon="6.45795">
        <ele>402</ele>
        <time>2014-06-15T10:13:49Z</time>
      </trkpt>
      <trkpt lat="47.47417" lon="6.45757">
        <ele>401</ele>
        <time>2014-06-15T10:14:14Z</time>
      </trkpt>
      <trkpt lat="47.47377" lon="6.45767">
        <ele>397</ele>
        <time>2014-06-15T10:14:22Z</time>
      </trkpt>
      <trkpt lat="47.47331" lon="6.45764">
        <ele>392</ele>
        <time>2014-06-15T10:14:28Z</time>
      </trkpt>
      <trkpt lat="47.4721" lon="6.4572">
        <ele>388</ele>
        <time>2014-06-15T10:14:45Z</time>
      </trkpt>
      <trkpt lat="47.47168" lon="6.45724">
        <ele>386</ele>
        <time>2014-06-15T10:14:52Z</time>
      </trkpt>
      <trkpt lat="47.47125" lon="6.45733">
        <ele>387</ele>
        <time>2014-06-15T10:15:01Z</time>
      </trkpt>
      <trkpt lat="47.47081" lon="6.45733">
        <ele>389</ele>
        <time>2014-06-15T10:15:08Z</time>
      </trkpt>
      <trkpt lat="47.47004" lon="6.45777">
        <ele>392</ele>
        <time>2014-06-15T10:15:22Z</time>
      </trkpt>
      <trkpt lat="47.46973" lon="6.4582">
        <ele>397</ele>
        <time>2014-06-15T10:15:31Z</time>
      </trkpt>
      <trkpt lat="47.46933" lon="6.45832">
        <ele>401</ele>
        <time>2014-06-15T10:15:41Z</time>
      </trkpt>
      <trkpt lat="47.46895" lon="6.45855">
        <ele>405</ele>
        <time>2014-06-15T10:15:51Z</time>
      </trkpt>
      <trkpt lat="47.46692" lon="6.45906">
        <ele>399</ele>
        <time>2014-06-15T10:16:36Z</time>
      </trkpt>
      <trkpt lat="47.46645" lon="6.45924">
        <ele>395</ele>
        <time>2014-06-15T10:16:42Z</time>
      </trkpt>
      <trkpt lat="47.46558" lon="6.45933">
        <ele>382</ele>
        <time>2014-06-15T10:16:52Z</time>
      </trkpt>
      <trkpt lat="47.46511" lon="6.45926">
        <ele>377</ele>
        <time>2014-06-15T10:16:58Z</time>
      </trkpt>
      <trkpt lat="47.46431" lon="6.45935">
        <ele>363</ele>
        <time>2014-06-15T10:17:06Z</time>
      </trkpt>
      <trkpt lat="47.46391" lon="6.45924">
        <ele>354</ele>
        <time>2014-06-15T10:17:12Z</time>
      </trkpt>
      <trkpt lat="47.46365" lon="6.45877">
        <ele>358</ele>
        <time>2014-06-15T10:17:19Z</time>
      </trkpt>
      <trkpt lat="47.46352" lon="6.45822">
        <ele>362</ele>
        <time>2014-06-15T10:17:30Z</time>
      </trkpt>
      <trkpt lat="47.46361" lon="6.45704">
        <ele>368</ele>
        <time>2014-06-15T10:18:02Z</time>
      </trkpt>
      <trkpt lat="47.46332" lon="6.45592">
        <ele>368</ele>
        <time>2014-06-15T10:18:27Z</time>
      </trkpt>
      <trkpt lat="47.46266" lon="6.45514">
        <ele>368</ele>
        <time>2014-06-15T10:18:49Z</time>
      </trkpt>
      <trkpt lat="47.46232" lon="6.45463">
        <ele>369</ele>
        <time>2014-06-15T10:18:57Z</time>
      </trkpt>
      <trkpt lat="47.46215" lon="6.45408">
        <ele>373</ele>
        <time>2014-06-15T10:19:03Z</time>
      </trkpt>
      <trkpt lat="47.46202" lon="6.45355">
        <ele>373</ele>
        <time>2014-06-15T10:19:11Z</time>
      </trkpt>
      <trkpt lat="47.46204" lon="6.45295">
        <ele>375</ele>
        <time>2014-06-15T10:19:19Z</time>
      </trkpt>
      <trkpt lat="47.46188" lon="6.4524">
        <ele>375</ele>
        <time>2014-06-15T10:19:26Z</time>
      </trkpt>
      <trkpt lat="47.46151" lon="6.44998">
        <ele>378</ele>
        <time>2014-06-15T10:19:58Z</time>
      </trkpt>
      <trkpt lat="47.46164" lon="6.44881">
        <ele>378</ele>
        <time>2014-06-15T10:20:13Z</time>
      </trkpt>
      <trkpt lat="47.46164" lon="6.44823">
        <ele>380</ele>
        <time>2014-06-15T10:20:19Z</time>
      </trkpt>
      <trkpt lat="47.46077" lon="6.44855">
        <ele>369</ele>
        <time>2014-06-15T10:20:34Z</time>
      </trkpt>
      <trkpt lat="47.46046" lon="6.44898">
        <ele>367</ele>
        <time>2014-06-15T10:20:42Z</time>
      </trkpt>
      <trkpt lat="47.46021" lon="6.44958">
        <ele>366</ele>
        <time>2014-06-15T10:20:51Z</time>
      </trkpt>
      <trkpt lat="47.45984" lon="6.45006">
        <ele>360</ele>
        <time>2014-06-15T10:21:01Z</time>
      </trkpt>
      <trkpt lat="47.4589" lon="6.45036">
        <ele>351</ele>
        <time>2014-06-15T10:21:13Z</time>
      </trkpt>
      <trkpt lat="47.45866" lon="6.45087">
        <ele>351</ele>
        <time>2014-06-15T10:21:21Z</time>
      </trkpt>
      <trkpt lat="47.45833" lon="6.45122">
        <ele>355</ele>
        <time>2014-06-15T10:21:28Z</time>
      </trkpt>
      <trkpt lat="47.45792" lon="6.45125">
        <ele>359</ele>
        <time>2014-06-15T10:21:50Z</time>
      </trkpt>
      <trkpt lat="47.45777" lon="6.4518">
        <ele>364</ele>
        <time>2014-06-15T10:22:23Z</time>
      </trkpt>
      <trkpt lat="47.45782" lon="6.45238">
        <ele>365</ele>
        <time>2014-06-15T10:22:47Z</time>
      </trkpt>
      <trkpt lat="47.458" lon="6.4529">
        <ele>363</ele>
        <time>2014-06-15T10:23:21Z</time>
      </trkpt>
      <trkpt lat="47.4579" lon="6.4535">
        <ele>363</ele>
        <time>2014-06-15T10:23:59Z</time>
      </trkpt>
      <trkpt lat="47.45768" lon="6.45397">
        <ele>365</ele>
        <time>2014-06-15T10:24:31Z</time>
      </trkpt>
      <trkpt lat="47.45732" lon="6.45427">
        <ele>372</ele>
        <time>2014-06-15T10:24:59Z</time>
      </trkpt>
      <trkpt lat="47.45798" lon="6.45362">
        <ele>362</ele>
        <time>2014-06-15T10:26:35Z</time>
      </trkpt>
      <trkpt lat="47.45814" lon="6.45306">
        <ele>362</ele>
        <time>2014-06-15T10:26:53Z</time>
      </trkpt>
      <trkpt lat="47.45786" lon="6.45134">
        <ele>360</ele>
        <time>2014-06-15T10:28:44Z</time>
      </trkpt>
      <trkpt lat="47.45824" lon="6.45149">
        <ele>355</ele>
        <time>2014-06-15T10:29:52Z</time>
      </trkpt>
      <trkpt lat="47.45845" lon="6.45207">
        <ele>349</ele>
        <time>2014-06-15T10:30:02Z</time>
      </trkpt>
      <trkpt lat="47.45882" lon="6.45228">
        <ele>346</ele>
        <time>2014-06-15T10:30:10Z</time>
      </trkpt>
      <trkpt lat="47.45927" lon="6.4513">
        <ele>354</ele>
        <time>2014-06-15T10:30:34Z</time>
      </trkpt>
      <trkpt lat="47.45964" lon="6.45153">
        <ele>355</ele>
        <time>2014-06-15T10:30:46Z</time>
      </trkpt>
      <trkpt lat="47.45985" lon="6.45204">
        <ele>351</ele>
        <time>2014-06-15T10:31:05Z</time>
      </trkpt>
      <trkpt lat="47.45996" lon="6.45267">
        <ele>347</ele>
        <time>2014-06-15T10:31:16Z</time>
      </trkpt>
      <trkpt lat="47.45999" lon="6.4533">
        <ele>345</ele>
        <time>2014-06-15T10:31:24Z</time>
      </trkpt>
      <trkpt lat="47.46012" lon="6.45385">
        <ele>350</ele>
        <time>2014-06-15T10:31:38Z</time>
      </trkpt>
      <trkpt lat="47.46016" lon="6.45506">
        <ele>338</ele>
        <time>2014-06-15T10:32:00Z</time>
      </trkpt>
      <trkpt lat="47.46041" lon="6.45555">
        <ele>338</ele>
        <time>2014-06-15T10:32:08Z</time>
      </trkpt>
      <trkpt lat="47.46061" lon="6.45673">
        <ele>328</ele>
        <time>2014-06-15T10:32:22Z</time>
      </trkpt>
      <trkpt lat="47.46095" lon="6.45721">
        <ele>329</ele>
        <time>2014-06-15T10:32:29Z</time>
      </trkpt>
      <trkpt lat="47.46138" lon="6.45736">
        <ele>331</ele>
        <time>2014-06-15T10:32:33Z</time>
      </trkpt>
      <trkpt lat="47.46173" lon="6.45775">
        <ele>332</ele>
        <time>2014-06-15T10:32:40Z</time>
      </trkpt>
      <trkpt lat="47.46184" lon="6.45836">
        <ele>328</ele>
        <time>2014-06-15T10:32:46Z</time>
      </trkpt>
      <trkpt lat="47.46236" lon="6.45882">
        <ele>332</ele>
        <time>2014-06-15T10:32:52Z</time>
      </trkpt>
      <trkpt lat="47.46226" lon="6.46179">
        <ele>329</ele>
        <time>2014-06-15T10:33:37Z</time>
      </trkpt>
      <trkpt lat="47.46186" lon="6.46351">
        <ele>325</ele>
        <time>2014-06-15T10:33:59Z</time>
      </trkpt>
      <trkpt lat="47.46204" lon="6.46527">
        <ele>323</ele>
        <time>2014-06-15T10:34:23Z</time>
      </trkpt>
      <trkpt lat="47.4627" lon="6.46808">
        <ele>329</ele>
        <time>2014-06-15T10:35:20Z</time>
      </trkpt>
      <trkpt lat="47.46299" lon="6.47042">
        <ele>338</ele>
        <time>2014-06-15T10:36:31Z</time>
      </trkpt>
      <trkpt lat="47.46333" lon="6.4715">
        <ele>347</ele>
        <time>2014-06-15T10:37:12Z</time>
      </trkpt>
      <trkpt lat="47.46344" lon="6.47209">
        <ele>353</ele>
        <time>2014-06-15T10:37:38Z</time>
      </trkpt>
      <trkpt lat="47.46337" lon="6.47268">
        <ele>356</ele>
        <time>2014-06-15T10:38:00Z</time>
      </trkpt>
      <trkpt lat="47.46298" lon="6.47291">
        <ele>357</ele>
        <time>2014-06-15T10:38:21Z</time>
      </trkpt>
      <trkpt lat="47.46214" lon="6.473">
        <ele>358</ele>
        <time>2014-06-15T10:38:43Z</time>
      </trkpt>
      <trkpt lat="47.46175" lon="6.47318">
        <ele>358</ele>
        <time>2014-06-15T10:38:54Z</time>
      </trkpt>
      <trkpt lat="47.46134" lon="6.4731">
        <ele>356</ele>
        <time>2014-06-15T10:39:03Z</time>
      </trkpt>
      <trkpt lat="47.46106" lon="6.47265">
        <ele>355</ele>
        <time>2014-06-15T10:39:15Z</time>
      </trkpt>
      <trkpt lat="47.46065" lon="6.47246">
        <ele>350</ele>
        <time>2014-06-15T10:39:28Z</time>
      </trkpt>
      <trkpt lat="47.46049" lon="6.4719">
        <ele>347</ele>
        <time>2014-06-15T10:39:37Z</time>
      </trkpt>
      <trkpt lat="47.46044" lon="6.47132">
        <ele>343</ele>
        <time>2014-06-15T10:39:43Z</time>
      </trkpt>
      <trkpt lat="47.4603" lon="6.47076">
        <ele>338</ele>
        <time>2014-06-15T10:39:50Z</time>
      </trkpt>
      <trkpt lat="47.45993" lon="6.47051">
        <ele>336</ele>
        <time>2014-06-15T10:39:59Z</time>
      </trkpt>
      <trkpt lat="47.45948" lon="6.47055">
        <ele>336</ele>
        <time>2014-06-15T10:40:06Z</time>
      </trkpt>
      <trkpt lat="47.45908" lon="6.47045">
        <ele>334</ele>
        <time>2014-06-15T10:40:14Z</time>
      </trkpt>
      <trkpt lat="47.45785" lon="6.47042">
        <ele>332</ele>
        <time>2014-06-15T10:40:44Z</time>
      </trkpt>
      <trkpt lat="47.45734" lon="6.46945">
        <ele>327</ele>
        <time>2014-06-15T10:41:02Z</time>
      </trkpt>
      <trkpt lat="47.45736" lon="6.47008">
        <ele>328</ele>
        <time>2014-06-15T10:41:24Z</time>
      </trkpt>
      <trkpt lat="47.4576" lon="6.47056">
        <ele>331</ele>
        <time>2014-06-15T10:41:38Z</time>
      </trkpt>
      <trkpt lat="47.45777" lon="6.47113">
        <ele>332</ele>
        <time>2014-06-15T10:41:51Z</time>
      </trkpt>
      <trkpt lat="47.4581" lon="6.47148">
        <ele>333</ele>
        <time>2014-06-15T10:41:59Z</time>
      </trkpt>
      <trkpt lat="47.45876" lon="6.47365">
        <ele>335</ele>
        <time>2014-06-15T10:42:43Z</time>
      </trkpt>
      <trkpt lat="47.4588" lon="6.47426">
        <ele>335</ele>
        <time>2014-06-15T10:42:51Z</time>
      </trkpt>
      <trkpt lat="47.45914" lon="6.47541">
        <ele>333</ele>
        <time>2014-06-15T10:43:07Z</time>
      </trkpt>
      <trkpt lat="47.45895" lon="6.476">
        <ele>332</ele>
        <time>2014-06-15T10:43:12Z</time>
      </trkpt>
      <trkpt lat="47.45921" lon="6.47722">
        <ele>329</ele>
        <time>2014-06-15T10:43:24Z</time>
      </trkpt>
      <trkpt lat="47.4588" lon="6.47726">
        <ele>327</ele>
        <time>2014-06-15T10:43:39Z</time>
      </trkpt>
      <trkpt lat="47.45845" lon="6.47688">
        <ele>328</ele>
        <time>2014-06-15T10:43:45Z</time>
      </trkpt>
      <trkpt lat="47.45728" lon="6.47635">
        <ele>323</ele>
        <time>2014-06-15T10:44:05Z</time>
      </trkpt>
      <trkpt lat="47.4569" lon="6.47657">
        <ele>322</ele>
        <time>2014-06-15T10:44:12Z</time>
      </trkpt>
      <trkpt lat="47.45656" lon="6.47691">
        <ele>323</ele>
        <time>2014-06-15T10:44:19Z</time>
      </trkpt>
      <trkpt lat="47.45622" lon="6.4771">
        <ele>325</ele>
        <time>2014-06-15T10:44:28Z</time>
      </trkpt>
      <trkpt lat="47.4558" lon="6.47718">
        <ele>325</ele>
        <time>2014-06-15T10:44:41Z</time>
      </trkpt>
      <trkpt lat="47.45545" lon="6.47753">
        <ele>328</ele>
        <time>2014-06-15T10:44:55Z</time>
      </trkpt>
      <trkpt lat="47.45508" lon="6.47865">
        <ele>339</ele>
        <time>2014-06-15T10:45:17Z</time>
      </trkpt>
      <trkpt lat="47.4548" lon="6.47908">
        <ele>340</ele>
        <time>2014-06-15T10:45:28Z</time>
      </trkpt>
      <trkpt lat="47.4544" lon="6.47914">
        <ele>339</ele>
        <time>2014-06-15T10:45:44Z</time>
      </trkpt>
      <trkpt lat="47.45365" lon="6.47867">
        <ele>336</ele>
        <time>2014-06-15T10:46:12Z</time>
      </trkpt>
      <trkpt lat="47.45325" lon="6.47866">
        <ele>336</ele>
        <time>2014-06-15T10:46:29Z</time>
      </trkpt>
      <trkpt lat="47.45205" lon="6.47913">
        <ele>335</ele>
        <time>2014-06-15T10:47:20Z</time>
      </trkpt>
      <trkpt lat="47.45165" lon="6.47918">
        <ele>335</ele>
        <time>2014-06-15T10:47:32Z</time>
      </trkpt>
      <trkpt lat="47.45123" lon="6.47909">
        <ele>329</ele>
        <time>2014-06-15T10:47:43Z</time>
      </trkpt>
      <trkpt lat="47.45093" lon="6.47866">
        <ele>328</ele>
        <time>2014-06-15T10:47:53Z</time>
      </trkpt>
      <trkpt lat="47.45075" lon="6.47813">
        <ele>330</ele>
        <time>2014-06-15T10:48:07Z</time>
      </trkpt>
      <trkpt lat="47.45055" lon="6.47863">
        <ele>327</ele>
        <time>2014-06-15T10:48:44Z</time>
      </trkpt>
      <trkpt lat="47.45045" lon="6.47916">
        <ele>325</ele>
        <time>2014-06-15T10:49:02Z</time>
      </trkpt>
      <trkpt lat="47.4501" lon="6.47934">
        <ele>325</ele>
        <time>2014-06-15T10:49:23Z</time>
      </trkpt>
      <trkpt lat="47.44952" lon="6.47859">
        <ele>327</ele>
        <time>2014-06-15T10:49:55Z</time>
      </trkpt>
      <trkpt lat="47.44921" lon="6.47885">
        <ele>326</ele>
        <time>2014-06-15T10:50:17Z</time>
      </trkpt>
      <trkpt lat="47.44914" lon="6.4794">
        <ele>327</ele>
        <time>2014-06-15T10:50:35Z</time>
      </trkpt>
      <trkpt lat="47.44891" lon="6.47987">
        <ele>327</ele>
        <time>2014-06-15T10:50:49Z</time>
      </trkpt>
      <trkpt lat="47.44856" lon="6.48017">
        <ele>327</ele>
        <time>2014-06-15T10:51:00Z</time>
      </trkpt>
      <trkpt lat="47.44783" lon="6.48057">
        <ele>322</ele>
        <time>2014-06-15T10:51:30Z</time>
      </trkpt>
      <trkpt lat="47.44752" lon="6.48092">
        <ele>322</ele>
        <time>2014-06-15T10:51:47Z</time>
      </trkpt>
      <trkpt lat="47.44728" lon="6.48173">
        <ele>327</ele>
        <time>2014-06-15T10:51:58Z</time>
      </trkpt>
      <trkpt lat="47.44702" lon="6.48218">
        <ele>327</ele>
        <time>2014-06-15T10:52:09Z</time>
      </trkpt>
      <trkpt lat="47.44656" lon="6.48201">
        <ele>318</ele>
        <time>2014-06-15T10:52:19Z</time>
      </trkpt>
      <trkpt lat="47.44607" lon="6.48293">
        <ele>321</ele>
        <time>2014-06-15T10:52:41Z</time>
      </trkpt>
      <trkpt lat="47.44622" lon="6.48329">
        <ele>323</ele>
        <time>2014-06-15T10:52:59Z</time>
      </trkpt>
      <trkpt lat="47.44572" lon="6.48419">
        <ele>318</ele>
        <time>2014-06-15T10:53:15Z</time>
      </trkpt>
      <trkpt lat="47.44536" lon="6.48457">
        <ele>316</ele>
        <time>2014-06-15T10:53:26Z</time>
      </trkpt>
      <trkpt lat="47.44498" lon="6.48485">
        <ele>310</ele>
        <time>2014-06-15T10:53:34Z</time>
      </trkpt>
      <trkpt lat="47.44453" lon="6.48497">
        <ele>309</ele>
        <time>2014-06-15T10:53:39Z</time>
      </trkpt>
      <trkpt lat="47.44427" lon="6.48494">
        <ele>307</ele>
        <time>2014-06-15T10:53:47Z</time>
      </trkpt>
      <trkpt lat="47.4439" lon="6.48509">
        <ele>307</ele>
        <time>2014-06-15T10:53:54Z</time>
      </trkpt>
      <trkpt lat="47.44362" lon="6.48554">
        <ele>310</ele>
        <time>2014-06-15T10:54:00Z</time>
      </trkpt>
      <trkpt lat="47.44325" lon="6.48586">
        <ele>314</ele>
        <time>2014-06-15T10:54:07Z</time>
      </trkpt>
      <trkpt lat="47.44287" lon="6.48607">
        <ele>316</ele>
        <time>2014-06-15T10:54:14Z</time>
      </trkpt>
      <trkpt lat="47.44161" lon="6.48655">
        <ele>306</ele>
        <time>2014-06-15T10:54:35Z</time>
      </trkpt>
      <trkpt lat="47.44122" lon="6.48681">
        <ele>310</ele>
        <time>2014-06-15T10:54:43Z</time>
      </trkpt>
      <trkpt lat="47.4409" lon="6.48718">
        <ele>311</ele>
        <time>2014-06-15T10:54:51Z</time>
      </trkpt>
      <trkpt lat="47.44011" lon="6.48763">
        <ele>309</ele>
        <time>2014-06-15T10:55:06Z</time>
      </trkpt>
      <trkpt lat="47.43968" lon="6.48758">
        <ele>309</ele>
        <time>2014-06-15T10:55:13Z</time>
      </trkpt>
      <trkpt lat="47.43889" lon="6.48729">
        <ele>302</ele>
        <time>2014-06-15T10:55:28Z</time>
      </trkpt>
      <trkpt lat="47.43849" lon="6.48731">
        <ele>301</ele>
        <time>2014-06-15T10:55:36Z</time>
      </trkpt>
      <trkpt lat="47.43813" lon="6.48754">
        <ele>303</ele>
        <time>2014-06-15T10:55:43Z</time>
      </trkpt>
      <trkpt lat="47.43778" lon="6.48788">
        <ele>303</ele>
        <time>2014-06-15T10:55:52Z</time>
      </trkpt>
      <trkpt lat="47.43723" lon="6.48881">
        <ele>301</ele>
        <time>2014-06-15T10:56:09Z</time>
      </trkpt>
      <trkpt lat="47.43706" lon="6.48936">
        <ele>300</ele>
        <time>2014-06-15T10:56:16Z</time>
      </trkpt>
      <trkpt lat="47.43668" lon="6.48954">
        <ele>299</ele>
        <time>2014-06-15T10:56:34Z</time>
      </trkpt>
      <trkpt lat="47.43607" lon="6.48805">
        <ele>301</ele>
        <time>2014-06-15T10:56:59Z</time>
      </trkpt>
      <trkpt lat="47.43573" lon="6.48774">
        <ele>311</ele>
        <time>2014-06-15T10:57:10Z</time>
      </trkpt>
      <trkpt lat="47.43542" lon="6.48815">
        <ele>311</ele>
        <time>2014-06-15T10:57:20Z</time>
      </trkpt>
      <trkpt lat="47.43504" lon="6.48921">
        <ele>311</ele>
        <time>2014-06-15T10:57:46Z</time>
      </trkpt>
      <trkpt lat="47.43479" lon="6.4897">
        <ele>321</ele>
        <time>2014-06-15T10:57:55Z</time>
      </trkpt>
      <trkpt lat="47.43461" lon="6.49028">
        <ele>320</ele>
        <time>2014-06-15T10:58:05Z</time>
      </trkpt>
      <trkpt lat="47.43454" lon="6.49146">
        <ele>314</ele>
        <time>2014-06-15T10:58:27Z</time>
      </trkpt>
      <trkpt lat="47.43444" lon="6.49203">
        <ele>307</ele>
        <time>2014-06-15T10:58:32Z</time>
      </trkpt>
      <trkpt lat="47.43418" lon="6.49251">
        <ele>307</ele>
        <time>2014-06-15T10:58:38Z</time>
      </trkpt>
      <trkpt lat="47.43436" lon="6.49301">
        <ele>298</ele>
        <time>2014-06-15T10:58:53Z</time>
      </trkpt>
      <trkpt lat="47.43436" lon="6.49362">
        <ele>297</ele>
        <time>2014-06-15T10:59:01Z</time>
      </trkpt>
      <trkpt lat="47.43468" lon="6.49403">
        <ele>298</ele>
        <time>2014-06-15T10:59:11Z</time>
      </trkpt>
      <trkpt lat="47.43464" lon="6.49459">
        <ele>310</ele>
        <time>2014-06-15T10:59:18Z</time>
      </trkpt>
      <trkpt lat="47.43539" lon="6.49481">
        <ele>309</ele>
        <time>2014-06-15T10:59:56Z</time>
      </trkpt>
      <trkpt lat="47.43578" lon="6.49499">
        <ele>308</ele>
        <time>2014-06-15T11:00:11Z</time>
      </trkpt>
      <trkpt lat="47.43659" lon="6.49513">
        <ele>309</ele>
        <time>2014-06-15T11:00:33Z</time>
      </trkpt>
      <trkpt lat="47.43699" lon="6.49533">
        <ele>309</ele>
        <time>2014-06-15T11:00:43Z</time>
      </trkpt>
      <trkpt lat="47.43737" lon="6.49565">
        <ele>311</ele>
        <time>2014-06-15T11:00:54Z</time>
      </trkpt>
      <trkpt lat="47.43704" lon="6.49596">
        <ele>318</ele>
        <time>2014-06-15T11:01:22Z</time>
      </trkpt>
      <trkpt lat="47.43623" lon="6.49595">
        <ele>325</ele>
        <time>2014-06-15T11:01:47Z</time>
      </trkpt>
      <trkpt lat="47.43582" lon="6.49587">
        <ele>325</ele>
        <time>2014-06-15T11:02:03Z</time>
      </trkpt>
      <trkpt lat="47.43506" lon="6.49538">
        <ele>322</ele>
        <time>2014-06-15T11:02:34Z</time>
      </trkpt>
      <trkpt lat="47.43469" lon="6.4956">
        <ele>326</ele>
        <time>2014-06-15T11:02:51Z</time>
      </trkpt>
      <trkpt lat="47.43458" lon="6.49618">
        <ele>332</ele>
        <time>2014-06-15T11:03:11Z</time>
      </trkpt>
      <trkpt lat="47.43497" lon="6.49614">
        <ele>332</ele>
        <time>2014-06-15T11:11:35Z</time>
      </trkpt>
      <trkpt lat="47.43434" lon="6.49687">
        <ele>336</ele>
        <time>2014-06-15T11:21:42Z</time>
      </trkpt>
      <trkpt lat="47.43419" lon="6.49743">
        <ele>337</ele>
        <time>2014-06-15T11:21:55Z</time>
      </trkpt>
      <trkpt lat="47.43393" lon="6.50041">
        <ele>349</ele>
        <time>2014-06-15T11:23:16Z</time>
      </trkpt>
      <trkpt lat="47.43406" lon="6.50095">
        <ele>352</ele>
        <time>2014-06-15T11:23:33Z</time>
      </trkpt>
      <trkpt lat="47.43427" lon="6.50146">
        <ele>358</ele>
        <time>2014-06-15T11:23:51Z</time>
      </trkpt>
      <trkpt lat="47.43444" lon="6.50262">
        <ele>363</ele>
        <time>2014-06-15T11:24:27Z</time>
      </trkpt>
      <trkpt lat="47.43496" lon="6.50428">
        <ele>368</ele>
        <time>2014-06-15T11:25:15Z</time>
      </trkpt>
      <trkpt lat="47.43563" lon="6.50577">
        <ele>378</ele>
        <time>2014-06-15T11:26:06Z</time>
      </trkpt>
      <trkpt lat="47.43619" lon="6.50664">
        <ele>386</ele>
        <time>2014-06-15T11:26:42Z</time>
      </trkpt>
      <trkpt lat="47.43702" lon="6.50874">
        <ele>392</ele>
        <time>2014-06-15T11:27:47Z</time>
      </trkpt>
      <trkpt lat="47.43843" lon="6.51169">
        <ele>401</ele>
        <time>2014-06-15T11:29:14Z</time>
      </trkpt>
      <trkpt lat="47.44142" lon="6.51758">
        <ele>411</ele>
        <time>2014-06-15T11:31:17Z</time>
      </trkpt>
      <trkpt lat="47.4418" lon="6.52119">
        <ele>413</ele>
        <time>2014-06-15T11:32:02Z</time>
      </trkpt>
      <trkpt lat="47.44202" lon="6.52173">
        <ele>409</ele>
        <time>2014-06-15T11:32:10Z</time>
      </trkpt>
      <trkpt lat="47.44232" lon="6.52217">
        <ele>410</ele>
        <time>2014-06-15T11:32:19Z</time>
      </trkpt>
      <trkpt lat="47.44301" lon="6.52281">
        <ele>414</ele>
        <time>2014-06-15T11:32:39Z</time>
      </trkpt>
      <trkpt lat="47.44339" lon="6.52299">
        <ele>420</ele>
        <time>2014-06-15T11:32:50Z</time>
      </trkpt>
      <trkpt lat="47.44334" lon="6.52361">
        <ele>414</ele>
        <time>2014-06-15T11:32:59Z</time>
      </trkpt>
      <trkpt lat="47.44295" lon="6.52544">
        <ele>397</ele>
        <time>2014-06-15T11:33:16Z</time>
      </trkpt>
      <trkpt lat="47.44258" lon="6.52653">
        <ele>390</ele>
        <time>2014-06-15T11:33:27Z</time>
      </trkpt>
      <trkpt lat="47.44234" lon="6.52704">
        <ele>382</ele>
        <time>2014-06-15T11:33:32Z</time>
      </trkpt>
      <trkpt lat="47.44267" lon="6.52741">
        <ele>382</ele>
        <time>2014-06-15T11:33:46Z</time>
      </trkpt>
      <trkpt lat="47.44471" lon="6.52802">
        <ele>387</ele>
        <time>2014-06-15T11:34:29Z</time>
      </trkpt>
      <trkpt lat="47.44512" lon="6.52779">
        <ele>391</ele>
        <time>2014-06-15T11:34:36Z</time>
      </trkpt>
      <trkpt lat="47.44556" lon="6.52774">
        <ele>390</ele>
        <time>2014-06-15T11:34:42Z</time>
      </trkpt>
      <trkpt lat="47.44596" lon="6.52784">
        <ele>388</ele>
        <time>2014-06-15T11:34:47Z</time>
      </trkpt>
      <trkpt lat="47.44716" lon="6.52842">
        <ele>366</ele>
        <time>2014-06-15T11:35:03Z</time>
      </trkpt>
      <trkpt lat="47.44802" lon="6.52833">
        <ele>364</ele>
        <time>2014-06-15T11:35:16Z</time>
      </trkpt>
      <trkpt lat="47.44845" lon="6.52839">
        <ele>362</ele>
        <time>2014-06-15T11:35:22Z</time>
      </trkpt>
      <trkpt lat="47.44886" lon="6.5283">
        <ele>363</ele>
        <time>2014-06-15T11:35:27Z</time>
      </trkpt>
      <trkpt lat="47.44921" lon="6.52865">
        <ele>348</ele>
        <time>2014-06-15T11:35:32Z</time>
      </trkpt>
      <trkpt lat="47.44941" lon="6.52922">
        <ele>350</ele>
        <time>2014-06-15T11:35:37Z</time>
      </trkpt>
      <trkpt lat="47.44968" lon="6.52924">
        <ele>348</ele>
        <time>2014-06-15T11:35:45Z</time>
      </trkpt>
      <trkpt lat="47.44807" lon="6.52941">
        <ele>356</ele>
        <time>2014-06-15T11:36:32Z</time>
      </trkpt>
      <trkpt lat="47.44764" lon="6.52959">
        <ele>356</ele>
        <time>2014-06-15T11:36:41Z</time>
      </trkpt>
      <trkpt lat="47.44718" lon="6.52963">
        <ele>353</ele>
        <time>2014-06-15T11:36:49Z</time>
      </trkpt>
      <trkpt lat="47.44633" lon="6.52986">
        <ele>349</ele>
        <time>2014-06-15T11:37:03Z</time>
      </trkpt>
      <trkpt lat="47.44593" lon="6.52999">
        <ele>347</ele>
        <time>2014-06-15T11:37:11Z</time>
      </trkpt>
      <trkpt lat="47.44473" lon="6.53068">
        <ele>342</ele>
        <time>2014-06-15T11:37:33Z</time>
      </trkpt>
      <trkpt lat="47.44433" lon="6.53078">
        <ele>339</ele>
        <time>2014-06-15T11:37:39Z</time>
      </trkpt>
      <trkpt lat="47.4436" lon="6.53142">
        <ele>335</ele>
        <time>2014-06-15T11:37:48Z</time>
      </trkpt>
      <trkpt lat="47.44326" lon="6.53192">
        <ele>327</ele>
        <time>2014-06-15T11:37:54Z</time>
      </trkpt>
      <trkpt lat="47.44303" lon="6.53245">
        <ele>327</ele>
        <time>2014-06-15T11:37:59Z</time>
      </trkpt>
      <trkpt lat="47.44292" lon="6.53303">
        <ele>321</ele>
        <time>2014-06-15T11:38:04Z</time>
      </trkpt>
      <trkpt lat="47.44258" lon="6.53337">
        <ele>310</ele>
        <time>2014-06-15T11:38:11Z</time>
      </trkpt>
      <trkpt lat="47.44184" lon="6.5338">
        <ele>294</ele>
        <time>2014-06-15T11:38:26Z</time>
      </trkpt>
      <trkpt lat="47.44167" lon="6.53497">
        <ele>285</ele>
        <time>2014-06-15T11:38:50Z</time>
      </trkpt>
      <trkpt lat="47.44117" lon="6.53981">
        <ele>282</ele>
        <time>2014-06-15T11:40:03Z</time>
      </trkpt>
      <trkpt lat="47.44098" lon="6.54418">
        <ele>286</ele>
        <time>2014-06-15T11:41:12Z</time>
      </trkpt>
      <trkpt lat="47.44117" lon="6.54596">
        <ele>285</ele>
        <time>2014-06-15T11:41:39Z</time>
      </trkpt>
      <trkpt lat="47.44186" lon="6.54955">
        <ele>283</ele>
        <time>2014-06-15T11:42:37Z</time>
      </trkpt>
      <trkpt lat="47.4421" lon="6.55137">
        <ele>284</ele>
        <time>2014-06-15T11:43:06Z</time>
      </trkpt>
      <trkpt lat="47.4421" lon="6.55264">
        <ele>283</ele>
        <time>2014-06-15T11:43:24Z</time>
      </trkpt>
      <trkpt lat="47.44195" lon="6.55446">
        <ele>284</ele>
        <time>2014-06-15T11:43:52Z</time>
      </trkpt>
      <trkpt lat="47.44184" lon="6.55504">
        <ele>284</ele>
        <time>2014-06-15T11:44:03Z</time>
      </trkpt>
      <trkpt lat="47.44117" lon="6.55727">
        <ele>283</ele>
        <time>2014-06-15T11:44:49Z</time>
      </trkpt>
      <trkpt lat="47.44009" lon="6.55988">
        <ele>286</ele>
        <time>2014-06-15T11:45:42Z</time>
      </trkpt>
      <trkpt lat="47.43954" lon="6.56158">
        <ele>285</ele>
        <time>2014-06-15T11:46:14Z</time>
      </trkpt>
      <trkpt lat="47.43925" lon="6.56272">
        <ele>286</ele>
        <time>2014-06-15T11:46:36Z</time>
      </trkpt>
      <trkpt lat="47.43884" lon="6.56517">
        <ele>286</ele>
        <time>2014-06-15T11:47:20Z</time>
      </trkpt>
      <trkpt lat="47.43872" lon="6.56763">
        <ele>287</ele>
        <time>2014-06-15T11:47:58Z</time>
      </trkpt>
      <trkpt lat="47.43898" lon="6.56814">
        <ele>287</ele>
        <time>2014-06-15T11:48:08Z</time>
      </trkpt>
      <trkpt lat="47.44023" lon="6.56827">
        <ele>286</ele>
        <time>2014-06-15T11:48:40Z</time>
      </trkpt>
      <trkpt lat="47.44065" lon="6.56825">
        <ele>286</ele>
        <time>2014-06-15T11:48:51Z</time>
      </trkpt>
      <trkpt lat="47.44104" lon="6.56814">
        <ele>286</ele>
        <time>2014-06-15T11:49:01Z</time>
      </trkpt>
      <trkpt lat="47.44141" lon="6.56793">
        <ele>286</ele>
        <time>2014-06-15T11:49:12Z</time>
      </trkpt>
      <trkpt lat="47.44175" lon="6.56756">
        <ele>286</ele>
        <time>2014-06-15T11:49:29Z</time>
      </trkpt>
      <trkpt lat="47.44215" lon="6.56742">
        <ele>288</ele>
        <time>2014-06-15T11:49:41Z</time>
      </trkpt>
      <trkpt lat="47.44232" lon="6.56864">
        <ele>287</ele>
        <time>2014-06-15T11:50:02Z</time>
      </trkpt>
      <trkpt lat="47.44252" lon="6.56918">
        <ele>286</ele>
        <time>2014-06-15T11:50:11Z</time>
      </trkpt>
      <trkpt lat="47.44301" lon="6.57018">
        <ele>288</ele>
        <time>2014-06-15T11:50:30Z</time>
      </trkpt>
      <trkpt lat="47.44384" lon="6.57151">
        <ele>293</ele>
        <time>2014-06-15T11:50:56Z</time>
      </trkpt>
      <trkpt lat="47.44417" lon="6.57187">
        <ele>296</ele>
        <time>2014-06-15T11:51:04Z</time>
      </trkpt>
      <trkpt lat="47.44455" lon="6.57214">
        <ele>297</ele>
        <time>2014-06-15T11:51:14Z</time>
      </trkpt>
      <trkpt lat="47.44485" lon="6.57254">
        <ele>296</ele>
        <time>2014-06-15T11:51:24Z</time>
      </trkpt>
      <trkpt lat="47.44541" lon="6.57348">
        <ele>298</ele>
        <time>2014-06-15T11:51:44Z</time>
      </trkpt>
      <trkpt lat="47.44583" lon="6.57453">
        <ele>294</ele>
        <time>2014-06-15T11:52:05Z</time>
      </trkpt>
      <trkpt lat="47.4464" lon="6.5754">
        <ele>299</ele>
        <time>2014-06-15T11:52:25Z</time>
      </trkpt>
      <trkpt lat="47.44712" lon="6.57595">
        <ele>303</ele>
        <time>2014-06-15T11:52:47Z</time>
      </trkpt>
      <trkpt lat="47.44754" lon="6.57602">
        <ele>310</ele>
        <time>2014-06-15T11:52:57Z</time>
      </trkpt>
      <trkpt lat="47.44836" lon="6.57603">
        <ele>308</ele>
        <time>2014-06-15T11:53:15Z</time>
      </trkpt>
      <trkpt lat="47.4492" lon="6.57624">
        <ele>308</ele>
        <time>2014-06-15T11:53:33Z</time>
      </trkpt>
      <trkpt lat="47.45035" lon="6.57682">
        <ele>303</ele>
        <time>2014-06-15T11:54:00Z</time>
      </trkpt>
      <trkpt lat="47.45147" lon="6.57778">
        <ele>299</ele>
        <time>2014-06-15T11:54:28Z</time>
      </trkpt>
      <trkpt lat="47.45127" lon="6.57837">
        <ele>290</ele>
        <time>2014-06-15T11:54:39Z</time>
      </trkpt>
      <trkpt lat="47.45051" lon="6.57982">
        <ele>288</ele>
        <time>2014-06-15T11:55:03Z</time>
      </trkpt>
      <trkpt lat="47.45017" lon="6.58018">
        <ele>289</ele>
        <time>2014-06-15T11:55:14Z</time>
      </trkpt>
      <trkpt lat="47.44994" lon="6.58014">
        <ele>290</ele>
        <time>2014-06-15T11:55:29Z</time>
      </trkpt>
    </trkseg>
  </trk>
</gpx>